Hlavní strana
METAR-TAF:

METAR-TAF

Letiště :

Lonesome Pine Airport

Wise, Virginie, Spojené státy americké

zeměpisná šířka: 36-59N, zeměpisná délka: 082-32W, výška: 817 m

Aktuální stav počasí

Zpráva byla vytvořena před 7 minutami, v 00:15 UTC
Bezvětří
Teplota 2°C
Vlhkost vzduchu 100%
Tlak 1026 hPa
Viditelnost: 16.1 km
Jasno

METAR: KLNP 080015Z AUTO 00000KT 10SM CLR 02/02 A3031 RMK AO2

Čas: 19:22 (00:22 UTC)


TAF: chybějící

Stav a předpovědi počasí z více než 4 000 letišť (zprávy METAR a TAF).

Červené a žluté tečky na mapě představují dostupné meteorologické stanice.

Když kurzor umístíte na tečku, zobrazí se název stanice.

Pak kliknutím zobrazíte stav a předpověď počasí.

Chcete-li změnit mapu, kliknutím na zelené tlačítko se znaménkem +mapu přiblížíte, kliknutím na zelené tlačítko se znaménkem – mapu oddálíte a kliknutím na zelené šipky přejdete na sousední mapy.


METAR-TAF: